Atlantic Beach, New York
Current Conditions -  °F | °C
As of 9:51 PM on Monday 20 Oct 2014 (Local Time) from KJFK Reporting Station
Broken Clouds Broken Clouds  
Wind Chill: 15°   Ceiling: 20000
Heat Index: 15°   Visibility: 10mi
Dew Point:   Wind: 14mph
Humidity: 62%   Direction: 200°SSW
Pressure: 29.99"   Gusts: NA
Location:  40.59°N, 73.73°W
Report Text: KJFK 210151Z 20012KT 10SM BKN200 BKN250 15/08 A2999 RMK AO2 SLP157 T01500078
Loading
Personal Weather Stations






























Interactive Weather Map
Tropical Storm Tracking
New forecast layout! Learn more

10-Day Weather Forecast

Advertisements
Track Severe Weather on mobile